sensor_id;sensor_type;location;lat;lon;timestamp;pressure;altitude;pressure_sealevel;temperature;humidity
46836;BME280;32573;51.290;6.926;2022-07-23T00:01:59;100369.53;;;18.54;100.00
46836;BME280;32573;51.290;6.926;2022-07-23T00:04:28;100372.19;;;18.51;100.00
46836;BME280;32573;51.290;6.926;2022-07-23T00:06:56;100381.94;;;18.47;100.00
46836;BME280;32573;51.290;6.926;2022-07-23T00:09:25;100387.25;;;18.43;100.00
46836;BME280;32573;51.290;6.926;2022-07-23T00:11:57;100375.75;;;18.41;100.00
46836;BME280;32573;51.290;6.926;2022-07-23T00:14:25;100377.50;;;18.39;100.00
46836;BME280;32573;51.290;6.926;2022-07-23T00:16:53;100366.94;;;18.37;100.00
46836;BME280;32573;51.290;6.926;2022-07-23T00:19:22;100368.69;;;18.35;100.00
46836;BME280;32573;51.290;6.926;2022-07-23T00:21:50;100378.41;;;18.35;100.00
46836;BME280;32573;51.290;6.926;2022-07-23T00:24:19;100376.63;;;18.33;100.00
46836;BME280;32573;51.290;6.926;2022-07-23T00:26:47;100385.47;;;18.32;100.00
46836;BME280;32573;51.290;6.926;2022-07-23T00:29:17;100377.53;;;18.31;100.00
46836;BME280;32573;51.290;6.926;2022-07-23T00:31:45;100369.56;;;18.29;100.00
46836;BME280;32573;51.290;6.926;2022-07-23T00:34:14;100360.75;;;18.27;100.00
46836;BME280;32573;51.290;6.926;2022-07-23T00:36:42;100365.16;;;18.25;100.00
46836;BME280;32573;51.290;6.926;2022-07-23T00:39:11;100365.16;;;18.22;100.00
46836;BME280;32573;51.290;6.926;2022-07-23T00:41:39;100351.91;;;18.21;100.00
46836;BME280;32573;51.290;6.926;2022-07-23T00:44:17;100353.69;;;18.20;100.00
46836;BME280;32573;51.290;6.926;2022-07-23T00:46:49;100352.78;;;18.18;100.00
46836;BME280;32573;51.290;6.926;2022-07-23T00:49:20;100351.91;;;18.16;100.00
46836;BME280;32573;51.290;6.926;2022-07-23T00:51:49;100355.44;;;18.15;100.00
46836;BME280;32573;51.290;6.926;2022-07-23T00:54:18;100361.63;;;18.13;100.00
46836;BME280;32573;51.290;6.926;2022-07-23T00:56:47;100361.63;;;18.11;100.00
46836;BME280;32573;51.290;6.926;2022-07-23T00:59:16;100358.09;;;18.10;100.00
46836;BME280;32573;51.290;6.926;2022-07-23T01:01:45;100364.28;;;18.08;100.00
46836;BME280;32573;51.290;6.926;2022-07-23T01:04:16;100357.19;;;18.07;100.00
46836;BME280;32573;51.290;6.926;2022-07-23T01:06:45;100358.97;;;18.05;100.00
46836;BME280;32573;51.290;6.926;2022-07-23T01:09:14;100366.03;;;18.03;100.00
46836;BME280;32573;51.290;6.926;2022-07-23T01:11:42;100370.44;;;18.01;100.00
46836;BME280;32573;51.290;6.926;2022-07-23T01:14:13;100365.13;;;17.99;100.00
46836;BME280;32573;51.290;6.926;2022-07-23T01:16:44;100373.09;;;17.99;100.00
46836;BME280;32573;51.290;6.926;2022-07-23T01:19:14;100370.44;;;17.98;100.00
46836;BME280;32573;51.290;6.926;2022-07-23T01:21:44;100366.03;;;17.95;100.00
46836;BME280;32573;51.290;6.926;2022-07-23T01:24:15;100364.28;;;17.93;100.00
46836;BME280;32573;51.290;6.926;2022-07-23T01:27:06;100366.88;;;17.89;100.00
46836;BME280;32573;51.290;6.926;2022-07-23T01:29:37;100364.25;;;17.86;100.00
46836;BME280;32573;51.290;6.926;2022-07-23T01:32:11;100368.66;;;17.86;100.00
46836;BME280;32573;51.290;6.926;2022-07-23T01:34:40;100366.91;;;17.83;100.00
46836;BME280;32573;51.290;6.926;2022-07-23T01:37:09;100369.53;;;17.80;100.00
46836;BME280;32573;51.290;6.926;2022-07-23T01:39:39;100378.31;;;17.79;100.00
46836;BME280;32573;51.290;6.926;2022-07-23T01:42:07;100362.44;;;17.79;100.00
46836;BME280;32573;51.290;6.926;2022-07-23T01:44:36;100362.44;;;17.78;100.00
46836;BME280;32573;51.290;6.926;2022-07-23T01:47:07;100361.56;;;17.77;100.00
46836;BME280;32573;51.290;6.926;2022-07-23T01:49:35;100358.91;;;17.77;100.00
46836;BME280;32573;51.290;6.926;2022-07-23T01:52:30;100358.00;;;17.77;100.00
46836;BME280;32573;51.290;6.926;2022-07-23T01:55:01;100355.38;;;17.75;100.00
46836;BME280;32573;51.290;6.926;2022-07-23T01:57:29;100353.59;;;17.74;100.00
46836;BME280;32573;51.290;6.926;2022-07-23T01:59:58;100358.00;;;17.72;100.00
46836;BME280;32573;51.290;6.926;2022-07-23T02:02:27;100353.59;;;17.71;100.00
46836;BME280;32573;51.290;6.926;2022-07-23T02:04:55;100358.00;;;17.71;100.00
46836;BME280;32573;51.290;6.926;2022-07-23T02:07:25;100367.69;;;17.67;100.00
46836;BME280;32573;51.290;6.926;2022-07-23T02:10:01;100367.69;;;17.64;100.00
46836;BME280;32573;51.290;6.926;2022-07-23T02:12:29;100365.94;;;17.63;100.00
46836;BME280;32573;51.290;6.926;2022-07-23T02:14:58;100365.94;;;17.60;100.00
46836;BME280;32573;51.290;6.926;2022-07-23T02:17:26;100361.50;;;17.59;100.00
46836;BME280;32573;51.290;6.926;2022-07-23T02:19:54;100364.16;;;17.56;100.00
46836;BME280;32573;51.290;6.926;2022-07-23T02:22:23;100360.63;;;17.54;100.00
46836;BME280;32573;51.290;6.926;2022-07-23T02:24:51;100360.63;;;17.51;100.00
46836;BME280;32573;51.290;6.926;2022-07-23T02:27:21;100355.31;;;17.48;100.00
46836;BME280;32573;51.290;6.926;2022-07-23T02:29:50;100355.28;;;17.44;100.00
46836;BME280;32573;51.290;6.926;2022-07-23T02:32:18;100353.53;;;17.43;100.00
46836;BME280;32573;51.290;6.926;2022-07-23T02:34:48;100350.00;;;17.41;100.00
46836;BME280;32573;51.290;6.926;2022-07-23T02:37:17;100353.53;;;17.40;100.00
46836;BME280;32573;51.290;6.926;2022-07-23T02:39:46;100356.16;;;17.39;100.00
46836;BME280;32573;51.290;6.926;2022-07-23T02:42:15;100348.25;;;17.37;100.00
46836;BME280;32573;51.290;6.926;2022-07-23T02:44:45;100349.09;;;17.36;100.00
46836;BME280;32573;51.290;6.926;2022-07-23T02:47:14;100342.06;;;17.35;100.00
46836;BME280;32573;51.290;6.926;2022-07-23T02:49:44;100344.69;;;17.35;100.00
46836;BME280;32573;51.290;6.926;2022-07-23T02:52:13;100349.09;;;17.33;100.00
46836;BME280;32573;51.290;6.926;2022-07-23T02:54:42;100352.59;;;17.32;100.00
46836;BME280;32573;51.290;6.926;2022-07-23T02:57:14;100348.19;;;17.31;100.00
46836;BME280;32573;51.290;6.926;2022-07-23T02:59:42;100358.75;;;17.30;100.00
46836;BME280;32573;51.290;6.926;2022-07-23T03:02:12;100354.34;;;17.27;100.00
46836;BME280;32573;51.290;6.926;2022-07-23T03:04:40;100356.13;;;17.27;100.00
46836;BME280;32573;51.290;6.926;2022-07-23T03:07:11;100350.81;;;17.23;100.00
46836;BME280;32573;51.290;6.926;2022-07-23T03:09:40;100342.88;;;17.22;100.00
46836;BME280;32573;51.290;6.926;2022-07-23T03:12:08;100348.16;;;17.19;100.00
46836;BME280;32573;51.290;6.926;2022-07-23T03:14:41;100339.31;;;17.17;100.00
46836;BME280;32573;51.290;6.926;2022-07-23T03:17:09;100344.59;;;17.14;100.00
46836;BME280;32573;51.290;6.926;2022-07-23T03:19:39;100346.34;;;17.12;100.00
46836;BME280;32573;51.290;6.926;2022-07-23T03:22:08;100344.59;;;17.08;100.00
46836;BME280;32573;51.290;6.926;2022-07-23T03:24:37;100342.81;;;17.03;100.00
46836;BME280;32573;51.290;6.926;2022-07-23T03:27:27;100355.13;;;17.01;100.00
46836;BME280;32573;51.290;6.926;2022-07-23T03:29:58;100347.19;;;16.98;100.00
46836;BME280;32573;51.290;6.926;2022-07-23T03:32:27;100356.00;;;16.96;100.00
46836;BME280;32573;51.290;6.926;2022-07-23T03:34:57;100351.56;;;16.93;100.00
46836;BME280;32573;51.290;6.926;2022-07-23T03:37:27;100348.91;;;16.92;100.00
46836;BME280;32573;51.290;6.926;2022-07-23T03:39:57;100357.72;;;16.89;100.00
46836;BME280;32573;51.290;6.926;2022-07-23T03:42:27;100359.47;;;16.87;100.00
46836;BME280;32573;51.290;6.926;2022-07-23T03:44:55;100359.44;;;16.84;100.00
46836;BME280;32573;51.290;6.926;2022-07-23T03:47:23;100366.47;;;16.82;100.00
46836;BME280;32573;51.290;6.926;2022-07-23T03:49:52;100362.94;;;16.78;100.00
46836;BME280;32573;51.290;6.926;2022-07-23T03:52:22;100362.03;;;16.75;100.00
46836;BME280;32573;51.290;6.926;2022-07-23T03:54:51;100365.50;;;16.72;100.00
46836;BME280;32573;51.290;6.926;2022-07-23T03:57:22;100361.97;;;16.69;100.00
46836;BME280;32573;51.290;6.926;2022-07-23T03:59:51;100361.06;;;16.67;100.00
46836;BME280;32573;51.290;6.926;2022-07-23T04:02:19;100362.84;;;16.63;100.00
46836;BME280;32573;51.290;6.926;2022-07-23T04:04:48;100354.88;;;16.61;100.00
46836;BME280;32573;51.290;6.926;2022-07-23T04:07:16;100350.47;;;16.59;100.00
46836;BME280;32573;51.290;6.926;2022-07-23T04:09:46;100355.75;;;16.57;100.00
46836;BME280;32573;51.290;6.926;2022-07-23T04:12:15;100360.13;;;16.55;100.00
46836;BME280;32573;51.290;6.926;2022-07-23T04:14:43;100359.25;;;16.53;100.00
46836;BME280;32573;51.290;6.926;2022-07-23T04:17:12;100368.03;;;16.52;100.00
46836;BME280;32573;51.290;6.926;2022-07-23T04:19:41;100370.66;;;16.51;100.00
46836;BME280;32573;51.290;6.926;2022-07-23T04:22:12;100375.94;;;16.49;100.00
46836;BME280;32573;51.290;6.926;2022-07-23T04:24:41;100375.06;;;16.49;100.00
46836;BME280;32573;51.290;6.926;2022-07-23T04:27:12;100366.25;;;16.48;100.00
46836;BME280;32573;51.290;6.926;2022-07-23T04:29:40;100372.38;;;16.47;100.00
46836;BME280;32573;51.290;6.926;2022-07-23T04:32:09;100370.63;;;16.46;100.00
46836;BME280;32573;51.290;6.926;2022-07-23T04:34:37;100375.91;;;16.46;100.00
46836;BME280;32573;51.290;6.926;2022-07-23T04:37:07;100375.03;;;16.44;100.00
46836;BME280;32573;51.290;6.926;2022-07-23T04:39:36;100382.94;;;16.44;100.00
46836;BME280;32573;51.290;6.926;2022-07-23T04:42:05;100386.47;;;16.43;100.00
46836;BME280;32573;51.290;6.926;2022-07-23T04:44:34;100398.81;;;16.43;100.00
46836;BME280;32573;51.290;6.926;2022-07-23T04:47:05;100388.22;;;16.41;100.00
46836;BME280;32573;51.290;6.926;2022-07-23T04:49:34;100397.91;;;16.44;100.00
46836;BME280;32573;51.290;6.926;2022-07-23T04:52:03;100400.59;;;16.45;100.00
46836;BME280;32573;51.290;6.926;2022-07-23T04:54:31;100406.75;;;16.46;100.00
46836;BME280;32573;51.290;6.926;2022-07-23T04:57:00;100412.94;;;16.48;100.00
46836;BME280;32573;51.290;6.926;2022-07-23T04:59:30;100410.28;;;16.49;100.00
46836;BME280;32573;51.290;6.926;2022-07-23T05:02:04;100405.03;;;16.51;100.00
46836;BME280;32573;51.290;6.926;2022-07-23T05:04:33;100412.94;;;16.52;100.00
46836;BME280;32573;51.290;6.926;2022-07-23T05:07:02;100412.09;;;16.53;100.00
46836;BME280;32573;51.290;6.926;2022-07-23T05:09:32;100413.00;;;16.55;100.00
46836;BME280;32573;51.290;6.926;2022-07-23T05:12:01;100411.25;;;16.57;100.00
46836;BME280;32573;51.290;6.926;2022-07-23T05:14:31;100411.28;;;16.60;100.00
46836;BME280;32573;51.290;6.926;2022-07-23T05:17:00;100413.94;;;16.64;100.00
46836;BME280;32573;51.290;6.926;2022-07-23T05:19:29;100423.66;;;16.68;100.00
46836;BME280;32573;51.290;6.926;2022-07-23T05:21:58;100434.22;;;16.69;100.00
46836;BME280;32573;51.290;6.926;2022-07-23T05:24:26;100430.72;;;16.72;100.00
46836;BME280;32573;51.290;6.926;2022-07-23T05:26:55;100436.06;;;16.75;100.00
46836;BME280;32573;51.290;6.926;2022-07-23T05:29:26;100436.94;;;16.75;100.00
46836;BME280;32573;51.290;6.926;2022-07-23T05:31:54;100439.56;;;16.77;100.00
46836;BME280;32573;51.290;6.926;2022-07-23T05:34:23;100444.84;;;16.77;100.00
46836;BME280;32573;51.290;6.926;2022-07-23T05:36:53;100437.84;;;16.79;100.00
46836;BME280;32573;51.290;6.926;2022-07-23T05:39:21;100433.47;;;16.81;100.00
46836;BME280;32573;51.290;6.926;2022-07-23T05:41:50;100440.53;;;16.84;100.00
46836;BME280;32573;51.290;6.926;2022-07-23T05:44:18;100440.56;;;16.85;100.00
46836;BME280;32573;51.290;6.926;2022-07-23T05:46:48;100445.88;;;16.88;100.00
46836;BME280;32573;51.290;6.926;2022-07-23T05:49:20;100446.75;;;16.89;100.00
46836;BME280;32573;51.290;6.926;2022-07-23T05:52:23;100446.75;;;16.90;100.00
46836;BME280;32573;51.290;6.926;2022-07-23T05:55:17;100445.91;;;16.93;100.00
46836;BME280;32573;51.290;6.926;2022-07-23T05:57:45;100445.03;;;16.95;100.00
46836;BME280;32573;51.290;6.926;2022-07-23T06:00:14;100446.78;;;16.96;100.00
46836;BME280;32573;51.290;6.926;2022-07-23T06:02:45;100447.69;;;16.98;100.00
46836;BME280;32573;51.290;6.926;2022-07-23T06:05:21;100449.50;;;17.02;100.00
46836;BME280;32573;51.290;6.926;2022-07-23T06:07:53;100454.78;;;17.04;100.00
46836;BME280;32573;51.290;6.926;2022-07-23T06:10:23;100458.34;;;17.08;100.00
46836;BME280;32573;51.290;6.926;2022-07-23T06:12:52;100467.13;;;17.10;100.00
46836;BME280;32573;51.290;6.926;2022-07-23T06:15:28;100468.03;;;17.12;100.00
46836;BME280;32573;51.290;6.926;2022-07-23T06:17:57;100466.28;;;17.14;100.00
46836;BME280;32573;51.290;6.926;2022-07-23T06:20:26;100464.56;;;17.16;100.00
46836;BME280;32573;51.290;6.926;2022-07-23T06:22:58;100461.03;;;17.18;100.00
46836;BME280;32573;51.290;6.926;2022-07-23T06:25:28;100465.44;;;17.19;100.00
46836;BME280;32573;51.290;6.926;2022-07-23T06:27:56;100457.53;;;17.21;100.00
46836;BME280;32573;51.290;6.926;2022-07-23T06:30:26;100459.31;;;17.25;100.00
46836;BME280;32573;51.290;6.926;2022-07-23T06:32:55;100471.66;;;17.29;100.00
46836;BME280;32573;51.290;6.926;2022-07-23T06:35:23;100463.75;;;17.31;100.00
46836;BME280;32573;51.290;6.926;2022-07-23T06:37:52;100463.75;;;17.32;100.00
46836;BME280;32573;51.290;6.926;2022-07-23T06:40:23;100471.72;;;17.35;100.00
46836;BME280;32573;51.290;6.926;2022-07-23T06:42:51;100470.84;;;17.38;100.00
46836;BME280;32573;51.290;6.926;2022-07-23T06:45:22;100472.63;;;17.40;100.00
46836;BME280;32573;51.290;6.926;2022-07-23T06:47:51;100474.41;;;17.43;100.00
46836;BME280;32573;51.290;6.926;2022-07-23T06:50:19;100477.94;;;17.43;100.00
46836;BME280;32573;51.290;6.926;2022-07-23T06:52:49;100480.56;;;17.46;100.00
46836;BME280;32573;51.290;6.926;2022-07-23T06:55:17;100468.22;;;17.47;100.00
46836;BME280;32573;51.290;6.926;2022-07-23T06:57:47;100477.97;;;17.48;100.00
46836;BME280;32573;51.290;6.926;2022-07-23T07:00:16;100470.00;;;17.50;100.00
46836;BME280;32573;51.290;6.926;2022-07-23T07:02:44;100473.53;;;17.52;100.00
46836;BME280;32573;51.290;6.926;2022-07-23T07:05:13;100478.88;;;17.55;100.00
46836;BME280;32573;51.290;6.926;2022-07-23T07:07:41;100471.81;;;17.55;100.00
46836;BME280;32573;51.290;6.926;2022-07-23T07:10:10;100477.13;;;17.58;100.00
46836;BME280;32573;51.290;6.926;2022-07-23T07:12:42;100480.66;;;17.62;100.00
46836;BME280;32573;51.290;6.926;2022-07-23T07:15:12;100478.91;;;17.64;100.00
46836;BME280;32573;51.290;6.926;2022-07-23T07:17:40;100485.97;;;17.66;100.00
46836;BME280;32573;51.290;6.926;2022-07-23T07:20:10;100484.22;;;17.70;100.00
46836;BME280;32573;51.290;6.926;2022-07-23T07:22:38;100488.66;;;17.74;100.00
46836;BME280;32573;51.290;6.926;2022-07-23T07:25:08;100483.38;;;17.79;100.00
46836;BME280;32573;51.290;6.926;2022-07-23T07:27:36;100494.91;;;17.82;100.00
46836;BME280;32573;51.290;6.926;2022-07-23T07:30:06;100488.72;;;17.86;100.00
46836;BME280;32573;51.290;6.926;2022-07-23T07:32:36;100483.44;;;17.91;100.00
46836;BME280;32573;51.290;6.926;2022-07-23T07:35:23;100486.13;;;17.97;100.00
46836;BME280;32573;51.290;6.926;2022-07-23T07:37:51;100484.38;;;18.01;100.00
46836;BME280;32573;51.290;6.926;2022-07-23T07:40:20;100491.44;;;18.05;100.00
46836;BME280;32573;51.290;6.926;2022-07-23T07:42:50;100496.75;;;18.08;100.00
46836;BME280;32573;51.290;6.926;2022-07-23T07:45:20;100501.16;;;18.12;100.00
46836;BME280;32573;51.290;6.926;2022-07-23T07:47:51;100501.16;;;18.17;100.00
46836;BME280;32573;51.290;6.926;2022-07-23T07:50:20;100505.59;;;18.19;100.00
46836;BME280;32573;51.290;6.926;2022-07-23T07:52:49;100504.72;;;18.22;100.00
46836;BME280;32573;51.290;6.926;2022-07-23T07:55:17;100505.63;;;18.25;100.00
46836;BME280;32573;51.290;6.926;2022-07-23T07:57:46;100510.03;;;18.28;100.00
46836;BME280;32573;51.290;6.926;2022-07-23T08:00:16;100510.03;;;18.31;100.00
46836;BME280;32573;51.290;6.926;2022-07-23T08:02:48;100511.81;;;18.35;100.00
46836;BME280;32573;51.290;6.926;2022-07-23T08:05:20;100515.34;;;18.39;100.00
46836;BME280;32573;51.290;6.926;2022-07-23T08:07:55;100513.59;;;18.41;100.00
46836;BME280;32573;51.290;6.926;2022-07-23T08:10:24;100516.25;;;18.41;100.00
46836;BME280;32573;51.290;6.926;2022-07-23T08:12:54;100521.53;;;18.41;100.00
46836;BME280;32573;51.290;6.926;2022-07-23T08:15:25;100523.31;;;18.42;100.00
46836;BME280;32573;51.290;6.926;2022-07-23T08:17:54;100516.25;;;18.45;100.00
46836;BME280;32573;51.290;6.926;2022-07-23T08:20:25;100522.44;;;18.50;100.00
46836;BME280;32573;51.290;6.926;2022-07-23T08:22:57;100527.75;;;18.57;100.00
46836;BME280;32573;51.290;6.926;2022-07-23T08:25:27;100519.81;;;18.63;100.00
46836;BME280;32573;51.290;6.926;2022-07-23T08:27:56;100520.69;;;18.69;100.00
46836;BME280;32573;51.290;6.926;2022-07-23T08:30:26;100527.75;;;18.73;100.00
46836;BME280;32573;51.290;6.926;2022-07-23T08:32:57;100527.78;;;18.77;100.00
46836;BME280;32573;51.290;6.926;2022-07-23T08:35:31;100535.78;;;18.80;100.00
46836;BME280;32573;51.290;6.926;2022-07-23T08:38:02;100526.91;;;18.81;100.00
46836;BME280;32573;51.290;6.926;2022-07-23T08:40:34;100538.41;;;18.81;100.00
46836;BME280;32573;51.290;6.926;2022-07-23T08:43:11;100537.53;;;18.82;100.00
46836;BME280;32573;51.290;6.926;2022-07-23T08:45:41;100539.31;;;18.85;100.00
46836;BME280;32573;51.290;6.926;2022-07-23T08:48:12;100541.06;;;18.89;100.00
46836;BME280;32573;51.290;6.926;2022-07-23T08:50:44;100542.84;;;18.93;100.00
46836;BME280;32573;51.290;6.926;2022-07-23T08:53:15;100541.06;;;18.98;100.00
46836;BME280;32573;51.290;6.926;2022-07-23T08:55:45;100543.72;;;19.03;100.00
46836;BME280;32573;51.290;6.926;2022-07-23T08:58:14;100540.16;;;19.07;100.00
46836;BME280;32573;51.290;6.926;2022-07-23T09:00:43;100536.63;;;19.11;100.00
46836;BME280;32573;51.290;6.926;2022-07-23T09:03:15;100547.25;;;19.17;100.00
46836;BME280;32573;51.290;6.926;2022-07-23T09:05:46;100549.88;;;19.22;100.00
46836;BME280;32573;51.290;6.926;2022-07-23T09:08:15;100550.75;;;19.27;100.00
46836;BME280;32573;51.290;6.926;2022-07-23T09:10:47;100541.00;;;19.32;100.00
46836;BME280;32573;51.290;6.926;2022-07-23T09:13:31;100550.75;;;19.37;100.00
46836;BME280;32573;51.290;6.926;2022-07-23T09:16:02;100550.75;;;19.42;100.00
46836;BME280;32573;51.290;6.926;2022-07-23T09:18:34;100556.94;;;19.47;100.00
46836;BME280;32573;51.290;6.926;2022-07-23T09:21:18;100548.94;;;19.53;100.00
46836;BME280;32573;51.290;6.926;2022-07-23T09:23:50;100551.59;;;19.59;100.00
46836;BME280;32573;51.290;6.926;2022-07-23T09:26:24;100548.91;;;19.66;100.00
46836;BME280;32573;51.290;6.926;2022-07-23T09:28:54;100546.28;;;19.70;100.00
46836;BME280;32573;51.290;6.926;2022-07-23T09:31:24;100536.53;;;19.77;100.00
46836;BME280;32573;51.290;6.926;2022-07-23T09:34:06;100544.44;;;19.81;100.00
46836;BME280;32573;51.290;6.926;2022-07-23T09:36:37;100544.44;;;19.86;100.00
46836;BME280;32573;51.290;6.926;2022-07-23T09:39:06;100539.13;;;19.91;100.00
46836;BME280;32573;51.290;6.926;2022-07-23T09:41:40;100545.28;;;19.94;100.00
46836;BME280;32573;51.290;6.926;2022-07-23T09:44:11;100543.53;;;19.99;100.00
46836;BME280;32573;51.290;6.926;2022-07-23T09:46:40;100541.72;;;20.04;100.00
46836;BME280;32573;51.290;6.926;2022-07-23T09:49:16;100546.09;;;20.12;100.00
46836;BME280;32573;51.290;6.926;2022-07-23T09:51:48;100548.72;;;20.18;100.00
46836;BME280;32573;51.290;6.926;2022-07-23T09:54:31;100549.59;;;20.23;100.00
46836;BME280;32573;51.290;6.926;2022-07-23T09:57:04;100550.44;;;20.26;100.00
46836;BME280;32573;51.290;6.926;2022-07-23T09:59:35;100541.56;;;20.31;100.00
46836;BME280;32573;51.290;6.926;2022-07-23T10:02:05;100550.41;;;20.37;100.00
46836;BME280;32573;51.290;6.926;2022-07-23T10:04:44;100548.59;;;20.42;100.00
46836;BME280;32573;51.290;6.926;2022-07-23T10:07:25;100548.56;;;20.45;100.00
46836;BME280;32573;51.290;6.926;2022-07-23T10:10:35;100554.75;;;20.52;100.00
46836;BME280;32573;51.290;6.926;2022-07-23T10:13:27;100552.94;;;20.59;100.00
46836;BME280;32573;51.290;6.926;2022-07-23T10:16:14;100551.13;;;20.65;100.00
46836;BME280;32573;51.290;6.926;2022-07-23T10:18:52;100549.31;;;20.72;100.00
46836;BME280;32573;51.290;6.926;2022-07-23T10:21:25;100545.69;;;20.81;100.00
46836;BME280;32573;51.290;6.926;2022-07-23T10:24:12;100542.97;;;20.88;100.00
46836;BME280;32573;51.290;6.926;2022-07-23T10:26:54;100536.69;;;20.96;100.00
46836;BME280;32573;51.290;6.926;2022-07-23T10:29:39;100541.06;;;21.01;100.00
46836;BME280;32573;51.290;6.926;2022-07-23T10:32:20;100541.00;;;21.09;100.00
46836;BME280;32573;51.290;6.926;2022-07-23T10:34:57;100532.97;;;21.14;100.00
46836;BME280;32573;51.290;6.926;2022-07-23T10:37:29;100525.81;;;21.20;100.00
46836;BME280;32573;51.290;6.926;2022-07-23T10:40:12;100525.75;;;21.26;100.00
46836;BME280;32573;51.290;6.926;2022-07-23T10:42:41;100529.25;;;21.31;100.00
46836;BME280;32573;51.290;6.926;2022-07-23T10:45:28;100530.13;;;21.33;100.00
46836;BME280;32573;51.290;6.926;2022-07-23T10:48:12;100531.88;;;21.36;100.00
46836;BME280;32573;51.290;6.926;2022-07-23T10:50:41;100527.44;;;21.40;100.00
46836;BME280;32573;51.290;6.926;2022-07-23T10:53:17;100522.03;;;21.46;100.00
46836;BME280;32573;51.290;6.926;2022-07-23T10:55:51;100517.56;;;21.49;100.00
46836;BME280;32573;51.290;6.926;2022-07-23T10:58:22;100521.94;;;21.53;100.00
46836;BME280;32573;51.290;6.926;2022-07-23T11:00:50;100528.09;;;21.60;100.00
46836;BME280;32573;51.290;6.926;2022-07-23T11:03:31;100534.16;;;21.71;100.00
46836;BME280;32573;51.290;6.926;2022-07-23T11:06:05;100535.91;;;21.75;100.00
46836;BME280;32573;51.290;6.926;2022-07-23T11:08:34;100523.41;;;21.81;100.00
46836;BME280;32573;51.290;6.926;2022-07-23T11:11:11;100519.75;;;21.88;100.00
46836;BME280;32573;51.290;6.926;2022-07-23T11:13:45;100515.19;;;21.97;100.00
46836;BME280;32573;51.290;6.926;2022-07-23T11:16:24;100522.16;;;22.08;100.00
46836;BME280;32573;51.290;6.926;2022-07-23T11:19:05;100518.53;;;22.13;100.00
46836;BME280;32573;51.290;6.926;2022-07-23T11:21:55;100524.69;;;22.22;100.00
46836;BME280;32573;51.290;6.926;2022-07-23T11:24:24;100520.06;;;22.33;100.00
46836;BME280;32573;51.290;6.926;2022-07-23T11:27:03;100520.75;;;22.47;100.00
46836;BME280;32573;51.290;6.926;2022-07-23T11:29:45;100517.03;;;22.57;100.00
46836;BME280;32573;51.290;6.926;2022-07-23T11:32:38;100523.06;;;22.69;100.00
46836;BME280;32573;51.290;6.926;2022-07-23T11:35:23;100523.78;;;22.80;100.00
46836;BME280;32573;51.290;6.926;2022-07-23T11:37:53;100520.97;;;22.89;100.00
46836;BME280;32573;51.290;6.926;2022-07-23T11:40:25;100523.47;;;23.00;100.00
46836;BME280;32573;51.290;6.926;2022-07-23T11:42:58;100534.84;;;23.11;100.00
46836;BME280;32573;51.290;6.926;2022-07-23T11:45:33;100525.75;;;23.23;100.00
46836;BME280;32573;51.290;6.926;2022-07-23T11:48:03;100520.09;;;23.38;100.00
46836;BME280;32573;51.290;6.926;2022-07-23T11:50:32;100517.25;;;23.47;100.00
46836;BME280;32573;51.290;6.926;2022-07-23T11:53:01;100518.91;;;23.55;100.00
46836;BME280;32573;51.290;6.926;2022-07-23T11:55:29;100511.59;;;23.63;100.00
46836;BME280;32573;51.290;6.926;2022-07-23T11:57:59;100515.88;;;23.73;100.00
46836;BME280;32573;51.290;6.926;2022-07-23T12:00:29;100513.09;;;23.79;100.00
46836;BME280;32573;51.290;6.926;2022-07-23T12:03:02;100517.41;;;23.86;100.00
46836;BME280;32573;51.290;6.926;2022-07-23T12:05:33;100517.19;;;23.96;100.00
46836;BME280;32573;51.290;6.926;2022-07-23T12:08:04;100516.06;;;24.06;100.00
46836;BME280;32573;51.290;6.926;2022-07-23T12:10:36;100517.81;;;24.08;100.00
46836;BME280;32573;51.290;6.926;2022-07-23T12:13:07;100522.09;;;24.16;100.00
46836;BME280;32573;51.290;6.926;2022-07-23T12:15:39;100513.97;;;24.20;100.00
46836;BME280;32573;51.290;6.926;2022-07-23T12:18:11;100509.28;;;24.31;100.00
46836;BME280;32573;51.290;6.926;2022-07-23T12:20:41;100515.25;;;24.43;100.00
46836;BME280;32573;51.290;6.926;2022-07-23T12:23:11;100506.13;;;24.53;100.00
46836;BME280;32573;51.290;6.926;2022-07-23T12:25:48;100511.25;;;24.62;100.00
46836;BME280;32573;51.290;6.926;2022-07-23T12:28:19;100516.44;;;24.68;100.00
46836;BME280;32573;51.290;6.926;2022-07-23T12:30:49;100515.34;;;24.77;100.00
46836;BME280;32573;51.290;6.926;2022-07-23T12:33:23;100512.47;;;24.85;100.00
46836;BME280;32573;51.290;6.926;2022-07-23T12:35:53;100519.59;;;24.86;100.00
46836;BME280;32573;51.290;6.926;2022-07-23T12:38:24;100518.69;;;24.87;100.00
46836;BME280;32573;51.290;6.926;2022-07-23T12:40:54;100511.28;;;24.96;100.00
46836;BME280;32573;51.290;6.926;2022-07-23T12:43:25;100515.53;;;25.05;100.00
46836;BME280;32573;51.290;6.926;2022-07-23T12:45:57;100518.00;;;25.13;100.00
46836;BME280;32573;51.290;6.926;2022-07-23T12:48:26;100512.81;;;25.07;100.00
46836;BME280;32573;51.290;6.926;2022-07-23T12:50:57;100513.59;;;25.10;100.00
46836;BME280;32573;51.290;6.926;2022-07-23T12:53:29;100517.31;;;25.06;100.00
46836;BME280;32573;51.290;6.926;2022-07-23T12:56:00;100513.78;;;25.04;100.00
46836;BME280;32573;51.290;6.926;2022-07-23T12:58:45;100515.22;;;25.17;100.00
46836;BME280;32573;51.290;6.926;2022-07-23T13:01:26;100523.69;;;25.35;100.00
46836;BME280;32573;51.290;6.926;2022-07-23T13:04:00;100519.75;;;25.48;100.00